Terminal Aerodrome Forecast
Issued by NWS Denver/Boulder, CO

Home | Current Version | Previous Version | Text Only | Print | Product List | Glossary On
Versions: 1 2 3 4 5 6 7 8 9 10 11 12 13 14 15 16 17 18 19 20 21 22 23 24 25 26 27 28 29 30 31 32 33 34 35
000
FTUS45 KBOU 201138
TAFDEN
TAF
KDEN 201138Z 2012/2118 VRB05KT P6SM VCSH SCT050 BKN080 OVC110
      TEMPO 2013/2017 5SM -SHSN BKN030 OVC050
     FM201900 29006KT P6SM VCSH SCT040 OVC070
     FM202100 33007KT P6SM FEW060 SCT080 BKN110
     FM210000 07007KT P6SM SCT090 SCT120
     FM210200 14009KT P6SM FEW120 SCT200
     FM210400 18007KT P6SM SCT200=

USA.gov is the U.S. government's official web portal to all federal, state and local government web resources and services.